Time;durP1;ratioP1;P1;durP2;ratioP2;P2;SDS_P1;SDS_P2;PMS_P1;PMS_P2;Temp;Humidity;BMP_temperature;BMP_pressure;BME280_temperature;BME280_humidity;BME280_pressure;Samples;Min_cycle;Max_cycle;Signal;HPM_P1;HPM_P2
2021/09/18 03:30:25;;;;;;;8.80;6.53;;;;;;;15.37;61.39;98731.19;8340225;23;20176;-79
2021/09/18 03:33:47;;;;;;;7.13;6.40;;;;;;;14.80;62.54;98739.28;6896170;28;20216;-80
2021/09/18 03:37:08;;;;;;;9.13;8.23;;;;;;;14.23;66.11;98729.88;6899617;28;20215;-80
2021/09/18 03:40:30;;;;;;;8.50;7.70;;;;;;;15.16;63.25;98711.91;6897114;28;20278;-81
2021/09/18 03:43:51;;;;;;;8.80;7.90;;;;;;;15.00;63.09;98735.16;6898858;28;20204;-80
2021/09/18 03:47:14;;;;;;;9.20;8.30;;;;;;;14.94;63.82;98684.53;6899062;28;20218;-80
2021/09/18 03:50:36;;;;;;;8.73;7.83;;;;;;;15.55;62.35;98732.94;6898598;28;20229;-81
2021/09/18 03:53:58;;;;;;;7.20;6.50;;;;;;;15.22;61.84;98717.22;6899392;28;20226;-80
2021/09/18 03:57:19;;;;;;;9.10;7.47;;;;;;;15.32;62.07;98730.19;6899667;28;20212;-80
2021/09/18 04:00:41;;;;;;;9.80;7.40;;;;;;;15.54;61.42;98713.09;6898648;28;20243;-80
2021/09/18 04:04:05;;;;;;;7.37;6.20;;;;;;;15.46;60.91;98729.75;6899338;28;20217;-80
2021/09/18 04:07:26;;;;;;;7.00;6.40;;;;;;;15.71;60.15;98745.78;6898780;28;20204;-80
2021/09/18 04:10:48;;;;;;;7.60;6.83;;;;;;;15.71;60.24;98749.34;6899551;28;20217;-80
2021/09/18 04:14:09;;;;;;;7.47;6.77;;;;;;;15.84;59.56;98737.38;6898353;28;20606;-80
2021/09/18 04:17:31;;;;;;;8.53;7.13;;;;;;;15.89;59.28;98745.63;6903197;28;20217;-80
2021/09/18 04:20:54;;;;;;;8.77;7.17;;;;;;;15.39;59.41;98704.59;6901881;28;20228;-80
2021/09/18 04:24:15;;;;;;;8.80;7.90;;;;;;;15.40;60.51;98746.19;6905061;28;20210;-81
2021/09/18 04:27:37;;;;;;;9.37;7.77;;;;;;;15.07;61.09;98737.75;6925825;28;20295;-80
2021/09/18 04:30:59;;;;;;;9.70;7.23;;;;;;;15.03;61.35;98745.53;6923470;28;20679;-80
2021/09/18 04:34:20;;;;;;;8.57;7.70;;;;;;;15.06;61.27;98741.53;6914759;28;20212;-81
2021/09/18 04:37:43;;;;;;;9.20;7.63;;;;;;;15.30;61.30;98740.47;6903548;28;20198;-80
2021/09/18 04:41:05;;;;;;;8.97;8.07;;;;;;;15.25;61.06;98752.06;6903837;28;20240;-80
2021/09/18 04:44:27;;;;;;;8.53;7.67;;;;;;;15.31;60.91;98745.69;6904001;28;20228;-80
2021/09/18 04:47:49;;;;;;;10.30;9.07;;;;;;;15.47;60.34;98744.16;6907434;28;20217;-81
2021/09/18 04:51:10;;;;;;;8.70;7.80;;;;;;;15.54;60.31;98759.28;6907388;28;20224;-81
2021/09/18 04:54:33;;;;;;;12.63;8.70;;;;;;;15.51;60.18;98751.59;6910994;28;20669;-81
2021/09/18 04:57:55;;;;;;;10.30;9.30;;;;;;;15.57;60.14;98761.50;6922817;28;20234;-81
2021/09/18 05:01:17;;;;;;;10.90;9.40;;;;;;;15.57;59.80;98768.88;6917036;28;20785;-81
2021/09/18 05:04:38;;;;;;;9.83;8.73;;;;;;;15.59;60.31;98766.72;6918484;28;20208;-82
2021/09/18 05:08:00;;;;;;;10.63;9.57;;;;;;;15.34;59.98;98738.97;6917610;28;20203;-82
2021/09/18 05:11:23;;;;;;;11.13;9.50;;;;;;;15.62;59.91;98775.22;6916344;28;20594;-82
2021/09/18 05:14:44;;;;;;;11.73;10.53;;;;;;;15.56;60.26;98773.47;6907404;28;20208;-81
2021/09/18 05:18:06;;;;;;;9.40;8.50;;;;;;;15.77;60.03;98780.19;6902376;28;20217;-83
2021/09/18 05:21:28;;;;;;;10.53;9.53;;;;;;;15.64;60.12;98783.16;6892030;28;20381;-82
2021/09/18 05:24:50;;;;;;;11.23;10.03;;;;;;;15.57;60.65;98782.44;6893542;28;20317;-82
2021/09/18 05:28:16;;;;;;;11.20;10.00;;;;;;;15.61;60.40;98786.31;6892657;28;20220;-82
2021/09/18 05:31:37;;;;;;;11.40;9.47;;;;;;;15.76;60.27;98783.97;6920832;28;20384;-82
2021/09/18 05:34:59;;;;;;;11.77;10.57;;;;;;;15.74;60.17;98781.47;6921267;28;20689;-81
2021/09/18 05:38:20;;;;;;;11.87;10.70;;;;;;;15.76;59.65;98760.31;6920321;28;20214;-82
2021/09/18 05:41:42;;;;;;;12.47;11.10;;;;;;;15.30;61.19;98778.50;6920082;28;20722;-84
2021/09/18 05:45:06;;;;;;;15.87;12.00;;;;;;;15.27;61.63;98785.25;6920343;28;20250;-81
2021/09/18 05:48:28;;;;;;;13.40;12.00;;;;;;;15.42;61.79;98792.94;6919154;28;20214;-82
2021/09/18 05:51:49;;;;;;;14.37;11.07;;;;;;;15.51;61.79;98778.78;6920246;28;20233;-80
2021/09/18 05:55:11;;;;;;;14.73;11.63;;;;;;;15.41;61.40;98751.41;6897093;28;20231;-81
2021/09/18 05:58:33;;;;;;;11.73;10.53;;;;;;;15.43;61.93;98776.44;6919973;28;20228;-82
2021/09/18 06:01:56;;;;;;;13.10;11.53;;;;;;;15.62;61.78;98791.53;6918793;28;20239;-81
2021/09/18 06:05:17;;;;;;;11.50;10.40;;;;;;;16.45;60.71;98771.00;6919446;28;20215;-81
2021/09/18 06:08:39;;;;;;;10.47;9.40;;;;;;;16.37;58.48;98737.88;6918126;28;20205;-81
2021/09/18 06:12:00;;;;;;;11.20;9.90;;;;;;;16.10;59.73;98783.06;6917101;28;20584;-80
2021/09/18 06:15:22;;;;;;;10.90;9.90;;;;;;;16.41;60.16;98731.78;6907084;28;20251;-81
2021/09/18 06:18:45;;;;;;;10.30;9.27;;;;;;;17.85;56.88;98797.91;6909545;28;20317;-81
2021/09/18 06:22:07;;;;;;;10.47;9.57;;;;;;;17.74;57.46;98778.94;6894075;28;20221;-80
2021/09/18 06:25:28;;;;;;;10.30;9.20;;;;;;;17.99;55.74;98803.84;6907422;28;20218;-81
2021/09/18 06:28:50;;;;;;;10.40;9.40;;;;;;;17.61;57.09;98807.38;6890593;28;20617;-81
2021/09/18 06:32:11;;;;;;;10.00;9.10;;;;;;;18.08;56.02;98800.41;6896738;28;20768;-81
2021/09/18 06:35:34;;;;;;;10.20;9.20;;;;;;;18.42;55.96;98801.97;6901130;28;20201;-81
2021/09/18 06:38:56;;;;;;;10.00;9.10;;;;;;;18.97;55.07;98797.09;6901017;28;20226;-81
2021/09/18 06:42:18;;;;;;;9.27;8.43;;;;;;;19.19;54.38;98800.59;6918629;28;20710;-79
2021/09/18 06:45:39;;;;;;;9.60;8.40;;;;;;;19.18;53.66;98795.38;6905871;28;20552;-81
2021/09/18 06:49:01;;;;;;;9.27;8.37;;;;;;;19.92;52.20;98797.84;6896271;28;20207;-81
2021/09/18 06:52:24;;;;;;;8.50;7.63;;;;;;;20.09;52.22;98794.97;6918872;28;20266;-81
2021/09/18 06:55:45;;;;;;;8.33;7.63;;;;;;;20.40;51.46;98794.03;6915847;28;20204;-79
2021/09/18 06:59:07;;;;;;;8.23;7.40;;;;;;;20.19;50.91;98759.44;6913746;28;20231;-79
2021/09/18 07:02:29;;;;;;;8.70;7.27;;;;;;;20.96;49.82;98795.84;6904509;28;20212;-79
2021/09/18 07:05:50;;;;;;;7.60;7.00;;;;;;;20.78;50.19;98795.22;6900647;28;20302;-77
2021/09/18 07:09:13;;;;;;;8.40;7.67;;;;;;;21.29;48.49;98787.91;6900077;28;20232;-79
2021/09/18 07:12:35;;;;;;;7.47;6.67;;;;;;;21.27;48.38;98793.69;6896403;28;20269;-79
2021/09/18 07:15:56;;;;;;;6.90;6.17;;;;;;;21.57;47.41;98790.09;6914527;28;20258;-79
2021/09/18 07:19:18;;;;;;;8.23;7.03;;;;;;;21.31;48.70;98781.06;6891028;28;20263;-79
2021/09/18 07:22:40;;;;;;;6.60;6.00;;;;;;;21.65;47.42;98773.91;6898449;28;20229;-78
2021/09/18 07:26:03;;;;;;;6.37;5.77;;;;;;;22.19;46.52;98788.63;6897495;28;20207;-79
2021/09/18 07:29:25;;;;;;;6.63;6.07;;;;;;;22.31;45.57;98785.56;6912555;28;20760;-79
2021/09/18 07:32:47;;;;;;;6.80;5.97;;;;;;;22.71;45.64;98794.47;6901866;28;20230;-79
2021/09/18 07:36:09;;;;;;;5.90;5.30;;;;;;;22.85;45.15;98791.91;6898937;28;20206;-80
2021/09/18 07:39:31;;;;;;;5.67;5.20;;;;;;;23.15;44.47;98795.31;6905885;28;20262;-80
2021/09/18 07:42:54;;;;;;;6.20;5.67;;;;;;;22.62;46.32;98803.59;6922152;28;20440;-80
2021/09/18 07:46:15;;;;;;;5.87;5.10;;;;;;;23.28;44.22;98789.16;6923665;28;20826;-79
2021/09/18 07:49:37;;;;;;;5.37;4.97;;;;;;;23.32;43.25;98768.25;6942995;28;20209;-79
2021/09/18 07:52:59;;;;;;;5.37;4.87;;;;;;;23.46;44.24;98773.88;6958140;28;20244;-79
2021/09/18 07:56:21;;;;;;;7.60;5.40;;;;;;;23.35;44.07;98795.16;6959855;28;20226;-78
2021/09/18 07:59:43;;;;;;;5.50;5.00;;;;;;;23.44;44.28;98778.84;6943995;28;20233;-79
2021/09/18 08:03:05;;;;;;;6.13;5.17;;;;;;;23.59;44.81;98787.00;6930393;28;20221;-78
2021/09/18 08:06:27;;;;;;;5.90;5.40;;;;;;;23.93;43.81;98794.09;6926078;28;20198;-78
2021/09/18 08:09:49;;;;;;;6.00;5.40;;;;;;;22.98;44.90;98775.63;6904620;28;20207;-79
2021/09/18 08:13:11;;;;;;;7.17;5.60;;;;;;;23.33;44.59;98800.16;6923753;28;20357;-79
2021/09/18 08:16:34;;;;;;;5.23;4.73;;;;;;;24.40;42.19;98785.84;6934501;28;20219;-79
2021/09/18 08:19:55;;;;;;;5.53;5.10;;;;;;;23.65;43.75;98791.34;6919411;28;20227;-79
2021/09/18 08:23:17;;;;;;;5.00;4.60;;;;;;;23.63;43.92;98777.03;6925389;28;20222;-78
2021/09/18 08:26:38;;;;;;;5.83;5.27;;;;;;;23.61;43.71;98754.47;6935147;28;20266;-80
2021/09/18 08:30:00;;;;;;;6.03;5.43;;;;;;;22.23;47.55;98795.22;6930160;28;20211;-79
2021/09/18 08:33:23;;;;;;;5.53;5.03;;;;;;;21.53;49.45;98761.59;6908043;28;20599;-79
2021/09/18 08:36:45;;;;;;;5.90;5.40;;;;;;;22.74;48.08;98788.41;6899692;28;20300;-78
2021/09/18 08:40:08;;;;;;;8.37;6.00;;;;;;;22.26;48.64;98796.56;6899524;28;20232;-78
2021/09/18 08:43:30;;;;;;;5.90;5.30;;;;;;;23.05;46.33;98787.13;6921658;28;20233;-80
2021/09/18 08:46:53;;;;;;;6.07;5.50;;;;;;;23.09;47.07;98790.09;6926890;28;20250;-79
2021/09/18 08:50:18;;;;;;;5.80;5.20;;;;;;;23.04;45.64;98793.72;6915237;28;20267;-78
2021/09/18 08:53:39;;;;;;;8.67;4.90;;;;;;;22.53;46.96;98780.56;6905821;28;20254;-81
2021/09/18 08:57:01;;;;;;;5.73;4.90;;;;;;;23.66;46.34;98792.97;6912163;28;20548;-81
2021/09/18 09:00:45;;;;;;;5.83;5.10;;;;;;;24.33;44.24;98796.41;6921590;28;20226;-79
2021/09/18 09:04:08;;;;;;;5.57;5.10;;;;;;;24.48;44.07;98789.91;6914354;28;20206;-81
2021/09/18 09:07:31;;;;;;;6.70;5.17;;;;;;;24.96;43.63;98772.16;6892279;28;20210;-81
2021/09/18 09:10:53;;;;;;;5.73;4.80;;;;;;;25.60;41.64;98778.56;6893706;28;20235;-82
2021/09/18 09:14:15;;;;;;;5.97;5.47;;;;;;;25.02;42.89;98763.50;6896872;28;20209;-80
2021/09/18 09:17:38;;;;;;;9.60;5.87;;;;;;;24.73;43.27;98786.84;6924693;28;20208;-80
2021/09/18 09:21:11;;;;;;;6.03;5.53;;;;;;;25.11;43.21;98780.19;6912751;28;20315;-79
2021/09/18 09:24:35;;;;;;;5.70;5.20;;;;;;;24.82;42.04;98785.03;6904796;28;20205;-80
2021/09/18 09:27:58;;;;;;;6.40;5.20;;;;;;;25.49;41.82;98759.72;6912737;28;20698;-78
2021/09/18 09:31:27;;;;;;;5.07;4.67;;;;;;;26.04;40.58;98740.22;6927909;23;20240;-91
2021/09/18 09:34:57;;;;;;;4.53;4.20;;;;;;;25.69;39.06;98605.53;6905092;28;20294;-92
2021/09/18 09:38:20;;;;;;;5.33;4.37;;;;;;;24.76;40.23;98594.00;6919123;28;20736;-92
2021/09/18 09:41:46;;;;;;;5.07;4.30;;;;;;;25.87;40.01;98675.59;6919244;28;20310;-90
2021/09/18 09:45:12;;;;;;;4.90;4.40;;;;;;;25.78;39.71;98650.63;6919738;28;20240;-91
2021/09/18 09:48:34;;;;;;;5.97;4.93;;;;;;;25.98;39.00;98664.06;6919913;28;20704;-91
2021/09/18 09:52:17;;;;;;;4.17;3.33;;;;;;;26.28;38.38;98693.84;6919627;28;20219;-92
2021/09/18 09:55:39;;;;;;;3.87;3.20;;;;;;;26.70;35.89;98712.81;6919382;28;20243;-91
2021/09/18 09:59:03;;;;;;;3.00;2.80;;;;;;;26.58;35.79;98654.47;6919132;28;20239;-91
2021/09/18 10:02:25;;;;;;;2.73;2.53;;;;;;;26.20;34.31;98603.31;6918767;28;20243;-91
2021/09/18 10:05:47;;;;;;;3.00;2.70;;;;;;;26.72;33.38;98630.34;6914729;28;20261;-91
2021/09/18 10:09:14;;;;;;;2.23;2.03;;;;;;;25.94;32.72;98706.41;6892307;28;20215;-92
2021/09/18 10:16:28;;;;;;;2.57;1.83;;;;;;;25.75;31.55;98645.72;6890932;28;20208;-92
2021/09/18 10:20:07;;;;;;;1.90;1.80;;;;;;;26.43;30.97;98687.16;6891785;28;20808;-92
2021/09/18 10:23:28;;;;;;;2.07;1.87;;;;;;;25.89;31.48;98718.38;6892165;28;20256;-92
2021/09/18 10:27:14;;;;;;;2.00;1.90;;;;;;;25.68;29.87;98578.22;6890922;28;20211;-91
2021/09/18 10:30:38;;;;;;;1.67;1.57;;;;;;;26.39;29.49;98584.66;6891250;28;20208;-92
2021/09/18 10:34:21;;;;;;;2.67;1.50;;;;;;;25.60;31.30;98610.13;6891516;28;20215;-92
2021/09/18 10:37:43;;;;;;;2.10;1.90;;;;;;;26.85;30.38;98612.84;6891426;28;20220;-92
2021/09/18 10:41:09;;;;;;;1.70;1.50;;;;;;;27.08;28.29;98619.22;6890855;28;20245;-91
2021/09/18 10:44:48;;;;;;;1.97;1.87;;;;;;;25.08;31.27;98574.66;6891472;28;20225;-91
2021/09/18 10:48:35;;;;;;;2.60;2.00;;;;;;;25.07;31.73;98553.72;6890984;28;20219;-92
2021/09/18 10:52:28;;;;;;;2.23;2.13;;;;;;;25.42;31.95;98572.38;6891653;28;20205;-91
2021/09/18 10:56:03;;;;;;;2.17;1.93;;;;;;;26.87;31.06;98651.28;6893744;28;20234;-91
2021/09/18 10:59:48;;;;;;;1.80;1.70;;;;;;;24.85;31.39;98569.31;6892478;28;20330;-90
2021/09/18 11:03:12;;;;;;;2.13;2.00;;;;;;;25.98;31.14;98624.56;6892237;28;20576;-90
2021/09/18 11:06:36;;;;;;;2.20;2.00;;;;;;;26.37;29.66;98631.13;6890773;28;20223;-91
2021/09/18 11:10:00;;;;;;;1.97;1.87;;;;;;;27.78;29.36;98665.25;6891154;28;20671;-91
2021/09/18 11:13:26;;;;;;;2.70;2.20;;;;;;;27.68;28.68;98582.41;6890577;28;20212;-91
2021/09/18 11:16:53;;;;;;;2.30;2.10;;;;;;;28.60;28.45;98665.34;6891767;28;20213;-91
2021/09/18 11:20:28;;;;;;;1.97;1.87;;;;;;;27.73;29.24;98612.69;6890432;28;20304;-91
2021/09/18 11:23:54;;;;;;;2.10;2.00;;;;;;;27.60;29.34;98602.56;6894295;28;20547;-90
2021/09/18 11:27:33;;;;;;;2.40;2.20;;;;;;;26.40;31.39;98574.41;6884481;28;20221;-92
2021/09/18 11:31:09;;;;;;;2.20;2.00;;;;;;;27.40;30.60;98614.22;6868801;28;20233;-91
2021/09/18 11:34:40;;;;;;;2.50;2.30;;;;;;;26.15;32.25;98613.69;6870176;28;20228;-91
2021/09/18 11:38:41;;;;;;;2.60;2.20;;;;;;;26.99;30.45;98571.28;6868749;28;20220;-92
2021/09/18 11:46:29;;;;;;;4.13;2.23;;;;;;;27.17;31.55;98607.09;6868258;28;20166;-91
2021/09/18 11:49:53;;;;;;;2.40;2.20;;;;;;;28.41;29.60;98659.25;6868896;28;20344;-91
2021/09/18 11:53:16;;;;;;;2.40;2.20;;;;;;;28.55;30.05;98560.84;6868342;28;20248;-91
2021/09/18 11:56:45;;;;;;;2.60;2.40;;;;;;;29.06;29.67;98640.50;6868231;28;20213;-91
2021/09/18 12:00:23;;;;;;;2.43;2.30;;;;;;;27.30;30.04;98572.16;6867770;28;20235;-91
2021/09/18 12:11:46;;;;;;;3.00;2.80;;;;;;;26.73;31.52;98568.34;6894840;28;20177;-91
2021/09/18 12:15:33;;;;;;;2.63;2.43;;;;;;;28.66;30.35;98639.06;6894589;28;20215;-91
2021/09/18 12:19:05;;;;;;;3.23;2.80;;;;;;;27.78;29.40;98507.28;6894366;28;20217;-91
2021/09/18 12:22:30;;;;;;;2.90;2.70;;;;;;;27.77;30.40;98508.44;6893739;28;20278;-92
2021/09/18 12:26:07;;;;;;;2.70;2.50;;;;;;;28.85;30.28;98617.34;6894464;28;20225;-92
2021/09/18 12:29:33;;;;;;;2.80;2.60;;;;;;;28.69;29.43;98561.53;6868114;28;20275;-92
2021/09/18 12:36:56;;;;;;;3.17;2.87;;;;;;;29.32;30.29;98564.31;6840022;28;20219;-93
2021/09/18 12:40:21;;;;;;;5.10;2.70;;;;;;;29.65;29.58;98612.59;6867447;28;20237;-92
2021/09/18 12:43:58;;;;;;;2.90;2.70;;;;;;;28.37;32.31;98648.00;6867632;28;20234;-92
2021/09/18 12:48:18;;;;;;;3.00;2.80;;;;;;;27.71;33.01;98514.44;6867708;28;20236;-93
2021/09/18 12:52:22;;;;;;;3.47;3.17;;;;;;;26.54;34.94;98522.66;6841815;28;20258;-92
2021/09/18 12:56:17;;;;;;;4.00;3.50;;;;;;;25.99;36.06;98510.97;6867065;28;20205;-91
2021/09/18 13:00:38;;;;;;;3.60;3.30;;;;;;;25.79;37.20;98608.06;6865256;28;20258;-92
2021/09/18 13:04:02;;;;;;;3.53;3.23;;;;;;;26.44;36.53;98661.13;6866955;28;20331;-92
2021/09/18 13:07:35;;;;;;;6.80;3.30;;;;;;;25.81;36.66;98596.72;6880756;28;20740;-92
2021/09/18 13:11:17;;;;;;;3.77;3.40;;;;;;;26.46;36.19;98659.69;6893295;28;20208;-93
2021/09/18 13:14:55;;;;;;;3.60;3.30;;;;;;;25.44;35.36;98492.84;6892129;28;20217;-92
2021/09/18 13:18:43;;;;;;;3.37;3.07;;;;;;;25.27;34.28;98486.31;6892306;28;20223;-92
2021/09/18 13:22:15;;;;;;;3.37;3.07;;;;;;;25.81;32.48;98516.59;6866533;28;20402;-92
2021/09/18 13:25:38;;;;;;;3.67;3.37;;;;;;;25.94;31.96;98626.28;6882261;28;20213;-92
2021/09/18 13:29:24;;;;;;;3.70;3.40;;;;;;;26.35;31.19;98650.00;7020123;27;20636;-80
2021/09/18 13:32:45;;;;;;;3.10;2.90;;;;;;;26.38;31.71;98634.72;7020872;28;20334;-80
2021/09/18 13:36:07;;;;;;;5.07;4.33;;;;;;;25.92;36.16;98623.03;7020359;28;20211;-80
2021/09/18 13:39:28;;;;;;;4.83;4.30;;;;;;;25.85;37.55;98640.00;7020069;28;20204;-80
2021/09/18 13:42:50;;;;;;;3.87;3.57;;;;;;;26.87;36.71;98631.91;7020163;28;20262;-80
2021/09/18 13:46:13;;;;;;;18.00;4.27;;;;;;;27.19;36.61;98635.25;6992477;28;20682;-80
2021/09/18 13:49:35;;;;;;;3.83;3.37;;;;;;;27.37;35.45;98595.44;7003508;28;20575;-80
2021/09/18 13:52:57;;;;;;;3.87;3.50;;;;;;;26.59;35.75;98624.84;7010126;28;20235;-80
2021/09/18 13:56:18;;;;;;;3.40;3.20;;;;;;;27.56;34.99;98622.91;6994912;28;20284;-80
2021/09/18 13:59:40;;;;;;;3.73;3.43;;;;;;;27.21;34.31;98618.34;6992039;28;20545;-80
2021/09/18 14:03:03;;;;;;;4.00;3.60;;;;;;;27.20;35.05;98597.31;6992244;28;20225;-80
2021/09/18 14:06:25;;;;;;;3.87;3.50;;;;;;;27.71;34.83;98616.97;6996135;28;20229;-80
2021/09/18 14:09:47;;;;;;;4.03;3.73;;;;;;;27.53;34.88;98610.50;7017823;28;20243;-80
2021/09/18 14:13:08;;;;;;;3.23;3.03;;;;;;;27.61;32.64;98623.56;7011237;28;20276;-80
2021/09/18 14:16:30;;;;;;;3.20;3.00;;;;;;;27.16;33.95;98612.94;7017613;28;20294;-80
2021/09/18 14:19:53;;;;;;;3.67;3.30;;;;;;;26.18;35.15;98613.09;7019821;28;20209;-79
2021/09/18 14:23:15;;;;;;;4.00;3.20;;;;;;;25.34;36.84;98614.50;7010783;28;20233;-80
2021/09/18 14:26:37;;;;;;;3.80;3.30;;;;;;;25.94;35.00;98612.47;6998645;28;20225;-81
2021/09/18 14:29:59;;;;;;;3.63;3.33;;;;;;;26.60;33.15;98602.41;7000412;28;20205;-80
2021/09/18 14:33:20;;;;;;;3.20;2.90;;;;;;;26.33;35.02;98593.38;6991730;28;20257;-81
2021/09/18 14:36:43;;;;;;;3.60;3.30;;;;;;;26.38;35.39;98593.25;6992330;28;20235;-80
2021/09/18 14:40:06;;;;;;;3.87;3.57;;;;;;;26.47;34.12;98581.13;6983060;28;20244;-80
2021/09/18 14:43:28;;;;;;;4.07;3.30;;;;;;;26.89;34.04;98577.09;7000882;28;20382;-81
2021/09/18 14:46:49;;;;;;;3.80;3.50;;;;;;;27.11;34.40;98582.56;7001432;28;20237;-80
2021/09/18 14:50:12;;;;;;;3.43;3.13;;;;;;;27.52;33.25;98577.59;7000899;28;20354;-81
2021/09/18 14:53:35;;;;;;;3.33;3.03;;;;;;;26.48;33.45;98580.00;7001453;28;20215;-80
2021/09/18 14:56:57;;;;;;;3.30;3.10;;;;;;;26.66;34.36;98581.78;7000728;28;20654;-80
2021/09/18 15:00:19;;;;;;;3.83;3.53;;;;;;;26.97;33.67;98563.31;6992962;28;20206;-80
2021/09/18 15:03:40;;;;;;;3.70;3.43;;;;;;;27.31;32.98;98548.84;6974005;28;20210;-80
2021/09/18 15:07:02;;;;;;;3.73;3.43;;;;;;;27.34;33.25;98560.09;6973885;28;20234;-81
2021/09/18 15:10:25;;;;;;;3.90;3.50;;;;;;;27.44;33.66;98564.53;6982272;28;20247;-80
2021/09/18 15:13:49;;;;;;;4.20;3.40;;;;;;;26.64;33.07;98550.03;6979146;28;20231;-80
2021/09/18 15:17:10;;;;;;;3.37;3.10;;;;;;;26.87;31.51;98559.97;6972222;28;20300;-80
2021/09/18 15:20:32;;;;;;;3.63;3.33;;;;;;;26.43;30.50;98565.50;6970671;28;20241;-79
2021/09/18 15:23:53;;;;;;;3.40;3.20;;;;;;;26.89;29.58;98566.03;6971608;28;20213;-79
2021/09/18 15:27:16;;;;;;;3.33;3.10;;;;;;;27.09;30.39;98560.78;6971075;28;20222;-79
2021/09/18 15:30:38;;;;;;;2.83;2.63;;;;;;;27.10;29.81;98559.63;6973777;28;20232;-79
2021/09/18 15:34:00;;;;;;;3.10;2.90;;;;;;;27.10;30.58;98559.63;6952747;22;20231;-81
2021/09/18 15:37:21;;;;;;;3.10;2.90;;;;;;;26.85;30.63;98559.47;6936772;28;20661;-80
2021/09/18 15:40:43;;;;;;;3.70;3.40;;;;;;;26.46;31.40;98560.16;6932596;28;20211;-80
2021/09/18 15:44:06;;;;;;;3.67;3.37;;;;;;;26.49;32.15;98550.41;6914788;28;20222;-80
2021/09/18 15:47:28;;;;;;;3.10;2.90;;;;;;;26.45;32.00;98554.94;6927657;28;20219;-80
2021/09/18 15:50:49;;;;;;;3.20;2.90;;;;;;;27.42;30.63;98545.47;6940889;28;20214;-80
2021/09/18 15:54:11;;;;;;;3.60;3.30;;;;;;;27.28;30.48;98536.47;6941948;28;20313;-78
2021/09/18 15:57:33;;;;;;;3.27;3.07;;;;;;;27.22;30.52;98548.81;6942239;28;20199;-79
2021/09/18 16:00:55;;;;;;;4.43;3.20;;;;;;;27.43;30.65;98532.44;6941675;28;20592;-80
2021/09/18 16:04:17;;;;;;;3.60;3.30;;;;;;;26.88;31.36;98533.94;6914863;28;20287;-79
2021/09/18 16:07:39;;;;;;;3.57;3.33;;;;;;;27.24;30.81;98531.88;6928651;28;20254;-80
2021/09/18 16:11:00;;;;;;;4.57;3.47;;;;;;;26.89;32.07;98533.63;6940119;28;20226;-80
2021/09/18 16:14:22;;;;;;;3.67;3.37;;;;;;;27.36;31.53;98534.88;6941301;28;20667;-79
2021/09/18 16:17:45;;;;;;;4.30;4.00;;;;;;;26.96;32.82;98527.66;6941866;28;20206;-80
2021/09/18 16:21:07;;;;;;;3.57;3.27;;;;;;;27.25;32.21;98536.28;6941434;28;20665;-81
2021/09/18 16:24:29;;;;;;;3.70;3.40;;;;;;;27.29;32.63;98523.41;6941860;28;20206;-79
2021/09/18 16:27:50;;;;;;;4.00;3.50;;;;;;;27.04;36.06;98507.50;6938740;28;20232;-79
2021/09/18 16:31:12;;;;;;;3.60;3.30;;;;;;;26.77;37.01;98535.34;6943164;28;20203;-79
2021/09/18 16:34:35;;;;;;;3.70;3.40;;;;;;;26.64;37.41;98531.50;6942794;28;20206;-80
2021/09/18 16:37:56;;;;;;;4.37;3.57;;;;;;;26.58;37.47;98538.31;6929402;28;20579;-80
2021/09/18 16:41:19;;;;;;;3.83;3.40;;;;;;;26.36;37.76;98534.69;6941980;28;20240;-81
2021/09/18 16:44:41;;;;;;;3.70;3.40;;;;;;;25.93;39.19;98533.50;6942388;28;20201;-80
2021/09/18 16:48:03;;;;;;;4.53;3.40;;;;;;;24.99;40.88;98528.78;6937592;28;20320;-79
2021/09/18 16:51:26;;;;;;;4.30;4.00;;;;;;;24.71;41.00;98541.69;6939777;28;20264;-80
2021/09/18 16:54:48;;;;;;;4.70;4.30;;;;;;;24.59;41.40;98519.31;6940986;28;20205;-81
2021/09/18 16:58:09;;;;;;;5.93;4.03;;;;;;;24.91;40.43;98541.34;6940849;28;20683;-80
2021/09/18 17:01:31;;;;;;;4.50;4.10;;;;;;;24.93;40.98;98536.34;6940262;28;20220;-80
2021/09/18 17:04:53;;;;;;;5.90;5.40;;;;;;;24.05;43.20;98549.38;6940485;28;20235;-80
2021/09/18 17:08:16;;;;;;;6.77;6.10;;;;;;;24.33;42.93;98545.63;6940492;28;20226;-82
2021/09/18 17:11:38;;;;;;;6.80;6.10;;;;;;;23.69;44.85;98552.88;6940727;28;20224;-80
2021/09/18 17:14:59;;;;;;;6.57;5.97;;;;;;;23.77;44.99;98544.75;6940506;28;20882;-80
2021/09/18 17:18:21;;;;;;;13.03;10.27;;;;;;;23.55;46.11;98558.25;6940709;28;20267;-80
2021/09/18 17:21:43;;;;;;;10.30;9.20;;;;;;;23.50;45.87;98552.03;6940650;28;20224;-79
2021/09/18 17:25:08;;;;;;;8.77;7.83;;;;;;;23.42;46.23;98555.44;6941775;28;20265;-80
2021/09/18 17:28:29;;;;;;;7.50;6.80;;;;;;;23.13;46.89;98551.88;6941058;28;20742;-81
2021/09/18 17:31:51;;;;;;;7.37;6.77;;;;;;;23.06;47.40;98549.47;6940492;28;20239;-82
2021/09/18 17:35:13;;;;;;;9.80;7.07;;;;;;;22.09;50.41;98526.97;6936782;28;20210;-81
2021/09/18 17:38:34;;;;;;;7.30;6.63;;;;;;;22.34;50.52;98552.31;6946627;28;20200;-82
2021/09/18 17:41:59;;;;;;;9.33;6.77;;;;;;;22.29;50.24;98533.13;6950507;28;20223;-81
2021/09/18 17:45:21;;;;;;;8.40;7.23;;;;;;;22.36;50.65;98561.09;6926302;28;20222;-81
2021/09/18 17:48:43;;;;;;;9.07;7.30;;;;;;;22.35;50.73;98556.69;6944585;28;20251;-81
2021/09/18 17:52:05;;;;;;;12.30;8.83;;;;;;;22.18;51.07;98559.03;6946187;28;20236;-80
2021/09/18 17:55:26;;;;;;;10.13;7.87;;;;;;;21.96;51.60;98549.56;6948134;28;20215;-82
2021/09/18 17:58:49;;;;;;;10.60;7.90;;;;;;;21.62;53.42;98562.34;6949022;28;20603;-82
2021/09/18 18:02:12;;;;;;;10.37;9.37;;;;;;;21.47;53.52;98571.47;6951458;28;20231;-81
2021/09/18 18:05:33;;;;;;;12.20;9.73;;;;;;;21.51;53.16;98553.34;6950751;28;20204;-81
2021/09/18 18:08:55;;;;;;;10.17;9.13;;;;;;;21.60;52.95;98578.28;6943296;28;20224;-81
2021/09/18 18:12:23;;;;;;;9.37;7.83;;;;;;;21.54;52.75;98571.19;6936621;28;20220;-80
2021/09/18 18:15:46;;;;;;;8.20;7.40;;;;;;;21.30;53.33;98578.41;6957332;28;20201;-80
2021/09/18 18:19:08;;;;;;;7.77;7.03;;;;;;;21.13;53.96;98565.00;6958496;28;20207;-81
2021/09/18 18:22:29;;;;;;;7.40;6.70;;;;;;;21.22;53.84;98589.13;6958069;28;20224;-80
2021/09/18 18:25:51;;;;;;;7.30;6.60;;;;;;;20.94;54.32;98596.00;6958103;28;20557;-81
2021/09/18 18:29:14;;;;;;;8.27;7.47;;;;;;;20.95;54.22;98585.88;6957228;28;20225;-82
2021/09/18 18:32:38;;;;;;;7.57;6.87;;;;;;;20.39;55.27;98584.25;6957890;28;20581;-81
2021/09/18 18:36:00;;;;;;;9.43;6.67;;;;;;;20.28;56.02;98586.13;6957150;28;20238;-80
2021/09/18 18:39:21;;;;;;;9.50;7.87;;;;;;;19.68;55.74;98487.50;6958313;28;20261;-82
2021/09/18 18:42:43;;;;;;;8.83;7.77;;;;;;;19.98;56.89;98596.19;6957368;28;20227;-81
2021/09/18 18:46:04;;;;;;;8.57;7.70;;;;;;;19.89;56.65;98570.44;6958311;28;20210;-81
2021/09/18 18:49:28;;;;;;;8.73;7.33;;;;;;;20.45;55.25;98594.13;6957585;28;20227;-80
2021/09/18 18:52:59;;;;;;;8.53;7.70;;;;;;;19.97;55.83;98517.91;6958041;28;20707;-80
2021/09/18 18:56:20;;;;;;;8.33;7.60;;;;;;;19.95;56.82;98605.78;6944548;28;20211;-81
2021/09/18 18:59:42;;;;;;;8.00;7.30;;;;;;;20.09;56.56;98603.34;6944121;28;20210;-80
2021/09/18 19:03:04;;;;;;;8.27;7.47;;;;;;;19.91;56.59;98607.41;6943625;28;20223;-80
2021/09/18 19:06:27;;;;;;;8.40;7.70;;;;;;;19.70;57.94;98608.41;6944838;28;20210;-80
2021/09/18 19:09:49;;;;;;;7.37;6.67;;;;;;;19.84;56.94;98614.22;6945315;28;20218;-80
2021/09/18 19:13:11;;;;;;;7.60;6.80;;;;;;;19.69;57.85;98614.16;6943763;28;20222;-80
2021/09/18 19:16:33;;;;;;;8.50;7.63;;;;;;;19.85;56.57;98621.31;6943305;28;20203;-80
2021/09/18 19:19:55;;;;;;;7.93;6.90;;;;;;;19.78;57.15;98618.03;6942233;28;20228;-81
2021/09/18 19:23:18;;;;;;;7.63;6.73;;;;;;;19.68;56.72;98621.53;6943608;28;20694;-80
2021/09/18 19:26:40;;;;;;;8.33;7.30;;;;;;;19.60;56.54;98615.75;6942850;28;20203;-81
2021/09/18 19:30:02;;;;;;;7.13;6.53;;;;;;;19.30;56.68;98564.50;6942633;28;20706;-79
2021/09/18 19:33:23;;;;;;;7.80;7.10;;;;;;;19.35;56.80;98593.78;6943349;28;20454;-80
2021/09/18 19:36:45;;;;;;;7.80;7.10;;;;;;;19.32;57.22;98606.06;6945470;28;20213;-81
2021/09/18 19:40:09;;;;;;;8.80;8.00;;;;;;;19.60;56.23;98599.34;6944449;28;20568;-80
2021/09/18 19:43:32;;;;;;;8.17;7.47;;;;;;;19.44;56.94;98608.56;6942627;28;20265;-80
2021/09/18 19:46:53;;;;;;;8.60;7.80;;;;;;;19.34;57.18;98605.81;6942480;28;20278;-80
2021/09/18 19:50:15;;;;;;;8.03;7.23;;;;;;;19.49;56.22;98584.81;6941707;28;20225;-80